Time;durP1;ratioP1;P1;durP2;ratioP2;P2;SDS_P1;SDS_P2;PMS_P1;PMS_P2;Temp;Humidity;BMP_temperature;BMP_pressure;BME280_temperature;BME280_humidity;BME280_pressure;Samples;Min_cycle;Max_cycle;Signal;HPM_P1;HPM_P2
2023/12/16 00:01:50;;;;;;;2.03;1.80;;;8.10;99.90;;;;;;5068910;28;20202;-66
2023/12/16 00:04:19;;;;;;;5.03;2.10;;;8.10;99.90;;;;;;5061173;28;20236;-67
2023/12/16 00:06:46;;;;;;;2.87;2.17;;;8.10;99.90;;;;;;5065901;28;20588;-68
2023/12/16 00:09:13;;;;;;;2.10;1.90;;;8.10;99.90;;;;;;5065622;28;20232;-68
2023/12/16 00:11:40;;;;;;;2.33;1.83;;;8.10;99.90;;;;;;5066911;28;20218;-68
2023/12/16 00:14:07;;;;;;;3.63;1.70;;;8.10;99.90;;;;;;5067177;28;20250;-67
2023/12/16 00:16:43;;;;;;;3.13;2.50;;;8.10;99.90;;;;;;5066115;28;20272;-68
2023/12/16 00:19:12;;;;;;;2.73;2.07;;;8.10;99.90;;;;;;5067205;28;20703;-67
2023/12/16 00:21:41;;;;;;;2.07;1.87;;;8.10;99.90;;;;;;5065189;28;20223;-67
2023/12/16 00:24:08;;;;;;;2.17;1.80;;;8.10;99.90;;;;;;5069068;28;20223;-66
2023/12/16 00:26:35;;;;;;;2.80;2.20;;;8.10;99.90;;;;;;5068761;28;20220;-66
2023/12/16 00:29:02;;;;;;;3.40;2.17;;;8.10;99.90;;;;;;5063718;28;20220;-66
2023/12/16 00:31:29;;;;;;;2.87;2.13;;;8.10;99.90;;;;;;5068369;28;20201;-68
2023/12/16 00:33:56;;;;;;;3.47;1.87;;;8.10;99.90;;;;;;5063993;28;20282;-68
2023/12/16 00:36:23;;;;;;;2.83;2.00;;;8.10;99.90;;;;;;5049843;28;20205;-68
2023/12/16 00:38:52;;;;;;;2.73;2.17;;;8.10;99.90;;;;;;5065175;28;20217;-68
2023/12/16 00:41:19;;;;;;;2.67;1.80;;;8.10;99.90;;;;;;5065714;28;20243;-67
2023/12/16 00:43:47;;;;;;;4.33;1.93;;;8.10;99.90;;;;;;5062307;28;20198;-67
2023/12/16 00:46:14;;;;;;;2.10;1.87;;;8.10;99.90;;;;;;5045711;28;20576;-67
2023/12/16 00:48:41;;;;;;;2.57;2.07;;;8.10;99.90;;;;;;5068647;28;20190;-67
2023/12/16 00:51:08;;;;;;;1.97;1.53;;;8.10;99.90;;;;;;5049429;28;20633;-67
2023/12/16 00:53:35;;;;;;;1.80;1.57;;;8.10;99.90;;;;;;5069499;28;20194;-67
2023/12/16 00:56:03;;;;;;;2.00;1.67;;;8.10;99.90;;;;;;5068651;28;20197;-68
2023/12/16 00:58:30;;;;;;;1.93;1.67;;;8.10;99.90;;;;;;5068911;28;20238;-67
2023/12/16 01:00:58;;;;;;;1.80;1.60;;;8.10;99.90;;;;;;5070087;28;20280;-68
2023/12/16 01:03:25;;;;;;;1.70;1.40;;;8.10;99.90;;;;;;5068890;28;20238;-68
2023/12/16 01:05:52;;;;;;;3.60;1.60;;;8.20;99.90;;;;;;5069300;28;20231;-67
2023/12/16 01:08:19;;;;;;;2.40;1.20;;;8.10;99.90;;;;;;5067086;28;20278;-67
2023/12/16 01:10:46;;;;;;;1.60;1.37;;;8.20;99.90;;;;;;5070220;28;20284;-68
2023/12/16 01:13:17;;;;;;;2.63;1.70;;;8.20;99.90;;;;;;5067713;28;20540;-68
2023/12/16 01:15:44;;;;;;;1.77;1.53;;;8.20;99.90;;;;;;5069253;28;20660;-68
2023/12/16 01:18:11;;;;;;;4.03;1.70;;;8.20;99.90;;;;;;5067883;28;20250;-67
2023/12/16 01:20:38;;;;;;;2.70;1.40;;;8.30;99.90;;;;;;5068623;28;20205;-67
2023/12/16 01:23:05;;;;;;;1.57;1.47;;;8.30;99.90;;;;;;5069163;28;20204;-67
2023/12/16 01:25:32;;;;;;;2.30;1.60;;;8.30;99.90;;;;;;5055139;28;20286;-66
2023/12/16 01:27:59;;;;;;;4.23;1.93;;;8.30;99.90;;;;;;5053683;28;20195;-67
2023/12/16 01:30:30;;;;;;;2.40;1.20;;;8.30;99.90;;;;;;5073233;28;20213;-67
2023/12/16 01:32:57;;;;;;;1.23;1.13;;;8.30;99.90;;;;;;5067761;28;20189;-68
2023/12/16 01:35:26;;;;;;;2.90;1.30;;;8.30;99.90;;;;;;5070229;28;20200;-66
2023/12/16 01:37:53;;;;;;;2.83;1.53;;;8.30;99.90;;;;;;5071088;28;20291;-67
2023/12/16 01:40:20;;;;;;;3.03;1.60;;;8.40;99.90;;;;;;5072653;28;20213;-67
2023/12/16 01:42:48;;;;;;;2.40;1.40;;;8.40;99.90;;;;;;5072144;28;20626;-67
2023/12/16 01:45:17;;;;;;;1.67;1.20;;;8.40;99.90;;;;;;5072629;28;20244;-66
2023/12/16 01:47:49;;;;;;;1.60;1.03;;;8.40;99.90;;;;;;5072949;28;20201;-68
2023/12/16 01:50:16;;;;;;;4.60;1.40;;;8.40;99.90;;;;;;5072689;28;20189;-67
2023/12/16 01:52:44;;;;;;;1.50;1.17;;;8.40;99.90;;;;;;5054958;28;20209;-67
2023/12/16 01:55:15;;;;;;;3.60;1.43;;;8.40;99.90;;;;;;5070018;28;20738;-67
2023/12/16 01:57:45;;;;;;;2.20;1.70;;;8.40;99.90;;;;;;5071850;28;20197;-67
2023/12/16 02:00:24;;;;;;;1.67;1.40;;;8.40;99.90;;;;;;5054906;28;20707;-68
2023/12/16 02:02:52;;;;;;;1.97;1.37;;;8.40;99.90;;;;;;5072335;28;20278;-68
2023/12/16 02:05:20;;;;;;;2.27;1.57;;;8.40;99.90;;;;;;5073064;28;20190;-67
2023/12/16 02:07:50;;;;;;;4.97;2.00;;;8.40;99.90;;;;;;5072358;28;20757;-67
2023/12/16 02:10:17;;;;;;;2.53;1.70;;;8.40;99.90;;;;;;5072364;28;20197;-66
2023/12/16 02:12:45;;;;;;;1.87;1.30;;;8.40;99.90;;;;;;5071666;28;20207;-67
2023/12/16 02:15:12;;;;;;;5.63;1.77;;;8.40;99.90;;;;;;5053924;28;20205;-67
2023/12/16 02:17:39;;;;;;;2.37;1.50;;;8.40;99.90;;;;;;5052131;28;20209;-67
2023/12/16 02:20:09;;;;;;;3.47;2.10;;;8.30;99.90;;;;;;5072457;28;20201;-66
2023/12/16 02:22:39;;;;;;;3.70;1.67;;;8.40;99.90;;;;;;5051350;28;20196;-67
2023/12/16 02:25:10;;;;;;;7.63;2.10;;;8.20;99.90;;;;;;5067624;28;20707;-67
2023/12/16 02:27:38;;;;;;;2.73;1.60;;;8.40;99.90;;;;;;5071314;28;20191;-67
2023/12/16 02:30:08;;;;;;;4.13;1.93;;;8.30;99.90;;;;;;5053252;28;20214;-67
2023/12/16 02:32:36;;;;;;;4.03;1.93;;;8.30;99.90;;;;;;5072378;28;20197;-67
2023/12/16 02:35:03;;;;;;;5.73;2.23;;;8.30;99.90;;;;;;5054188;28;20328;-67
2023/12/16 02:37:30;;;;;;;6.07;2.10;;;8.30;99.90;;;;;;5072316;28;20240;-67
2023/12/16 02:39:57;;;;;;;8.20;2.20;;;8.30;99.90;;;;;;5050288;28;20233;-67
2023/12/16 02:42:26;;;;;;;7.57;2.13;;;8.30;99.90;;;;;;5071526;28;20201;-67
2023/12/16 02:44:53;;;;;;;5.60;1.83;;;8.30;99.90;;;;;;5070938;28;20185;-68
2023/12/16 02:47:20;;;;;;;5.53;2.10;;;8.30;99.90;;;;;;5071886;28;20297;-67
2023/12/16 02:49:47;;;;;;;5.90;2.13;;;8.30;99.90;;;;;;5071394;28;20209;-68
2023/12/16 02:52:14;;;;;;;8.30;2.20;;;8.30;99.90;;;;;;5053894;28;20193;-67
2023/12/16 02:54:41;;;;;;;8.03;1.93;;;8.40;99.90;;;;;;5071141;28;20990;-68
2023/12/16 02:57:08;;;;;;;7.17;2.13;;;8.40;99.90;;;;;;5071000;28;20247;-68
2023/12/16 02:59:39;;;;;;;6.77;2.03;;;8.40;99.90;;;;;;5070011;28;20232;-68
2023/12/16 03:02:06;;;;;;;4.97;1.83;;;8.40;99.90;;;;;;5063725;28;20221;-66
2023/12/16 03:04:35;;;;;;;2.80;1.23;;;8.40;99.90;;;;;;5070157;28;20291;-68
2023/12/16 03:07:03;;;;;;;2.80;1.50;;;8.40;99.90;;;;;;5063720;28;20197;-68
2023/12/16 03:09:30;;;;;;;5.07;1.70;;;8.40;99.90;;;;;;5070035;28;20268;-66
2023/12/16 03:11:59;;;;;;;7.50;1.80;;;8.50;99.90;;;;;;5063707;28;20285;-68
2023/12/16 03:14:26;;;;;;;6.23;2.20;;;8.50;99.90;;;;;;5068763;28;20761;-68
2023/12/16 03:16:54;;;;;;;1.83;1.17;;;8.50;99.90;;;;;;5052936;28;20210;-67
2023/12/16 03:19:21;;;;;;;6.03;2.03;;;8.50;99.90;;;;;;5052430;28;20221;-68
2023/12/16 03:21:48;;;;;;;3.07;1.53;;;8.50;99.90;;;;;;5064334;28;20285;-67
2023/12/16 03:24:21;;;;;;;6.63;1.70;;;8.50;99.90;;;;;;5052442;28;20509;-67
2023/12/16 03:26:50;;;;;;;4.40;1.50;;;8.50;99.90;;;;;;5070048;28;20235;-67
2023/12/16 03:29:17;;;;;;;2.07;1.37;;;8.50;99.90;;;;;;5051660;28;20227;-66
2023/12/16 03:31:44;;;;;;;4.73;1.67;;;8.50;99.90;;;;;;5070350;28;20259;-67
2023/12/16 03:34:13;;;;;;;1.87;1.57;;;8.50;99.90;;;;;;5070163;28;20286;-67
2023/12/16 03:36:43;;;;;;;4.67;1.80;;;8.50;99.90;;;;;;5052451;28;20619;-66
2023/12/16 03:39:11;;;;;;;2.50;1.50;;;9.00;99.90;;;;;;5069320;28;20215;-66
2023/12/16 03:41:38;;;;;;;6.53;1.70;;;8.60;99.90;;;;;;5070134;28;20227;-67
2023/12/16 03:44:05;;;;;;;4.67;1.60;;;8.60;99.90;;;;;;5069279;28;20840;-67
2023/12/16 03:46:35;;;;;;;5.50;1.70;;;8.60;99.90;;;;;;5069592;28;20199;-68
2023/12/16 03:49:02;;;;;;;5.67;1.80;;;8.60;99.90;;;;;;5070014;28;20222;-66
2023/12/16 03:51:30;;;;;;;6.40;1.87;;;8.60;99.90;;;;;;5069975;28;20278;-67
2023/12/16 03:53:58;;;;;;;5.53;1.30;;;8.60;99.90;;;;;;5069643;28;20187;-67
2023/12/16 03:56:25;;;;;;;3.97;1.97;;;8.60;99.90;;;;;;5069086;28;20192;-66
2023/12/16 03:58:52;;;;;;;3.43;1.40;;;8.60;99.90;;;;;;5050902;28;20667;-67
2023/12/16 04:01:19;;;;;;;6.87;2.07;;;8.60;99.90;;;;;;5070162;28;20228;-66
2023/12/16 04:03:46;;;;;;;5.17;1.67;;;8.60;99.90;;;;;;5030538;28;1132965;-67
2023/12/16 04:06:13;;;;;;;3.80;1.50;;;8.60;99.90;;;;;;5068379;28;20231;-67
2023/12/16 04:08:42;;;;;;;5.33;1.40;;;8.60;99.90;;;;;;5067705;28;20196;-67
2023/12/16 04:11:09;;;;;;;4.10;1.70;;;8.60;99.90;;;;;;5070082;28;20241;-67
2023/12/16 04:13:36;;;;;;;5.37;1.60;;;8.60;99.90;;;;;;5051426;28;20213;-68
2023/12/16 04:16:04;;;;;;;5.30;1.67;;;8.60;99.90;;;;;;5070137;28;20194;-67
2023/12/16 04:18:31;;;;;;;6.27;2.00;;;8.60;99.90;;;;;;5070314;28;20208;-67
2023/12/16 04:20:59;;;;;;;3.40;1.57;;;8.60;99.90;;;;;;5068934;28;20303;-67
2023/12/16 04:23:26;;;;;;;1.60;1.00;;;8.60;99.90;;;;;;5070780;28;20203;-67
2023/12/16 04:25:54;;;;;;;3.53;1.00;;;8.60;99.90;;;;;;5070255;28;20710;-68
2023/12/16 04:28:21;;;;;;;8.93;2.30;;;8.70;99.90;;;;;;5050992;28;20555;-67
2023/12/16 04:30:48;;;;;;;3.67;1.43;;;8.70;99.90;;;;;;5070061;28;20223;-67
2023/12/16 04:33:16;;;;;;;7.50;1.70;;;8.70;99.90;;;;;;5070057;28;20251;-67
2023/12/16 04:35:43;;;;;;;5.40;2.00;;;8.70;99.90;;;;;;5070014;28;20556;-67
2023/12/16 04:38:10;;;;;;;7.70;1.60;;;8.70;99.90;;;;;;5069394;28;20717;-67
2023/12/16 04:40:40;;;;;;;6.27;1.83;;;8.70;99.90;;;;;;5069879;28;20682;-67
2023/12/16 04:43:08;;;;;;;3.07;1.57;;;8.60;99.90;;;;;;5050642;28;20557;-67
2023/12/16 04:45:35;;;;;;;4.30;1.77;;;8.60;99.90;;;;;;5070122;28;20747;-67
2023/12/16 04:48:02;;;;;;;7.50;1.90;;;8.60;99.90;;;;;;5070050;28;20290;-68
2023/12/16 04:50:29;;;;;;;7.53;1.80;;;8.60;99.90;;;;;;5069831;28;20656;-67
2023/12/16 04:52:56;;;;;;;6.57;1.70;;;8.60;99.90;;;;;;5052398;28;20245;-67
2023/12/16 04:55:23;;;;;;;3.40;1.63;;;8.60;99.90;;;;;;5064831;28;20243;-68
2023/12/16 04:57:50;;;;;;;5.30;1.57;;;8.60;99.90;;;;;;5070030;28;20198;-66
2023/12/16 05:00:19;;;;;;;6.67;1.80;;;8.60;99.90;;;;;;5074320;28;20215;-69
2023/12/16 05:02:52;;;;;;;9.43;1.70;;;8.60;99.90;;;;;;5072264;28;20633;-67
2023/12/16 05:05:19;;;;;;;4.60;1.90;;;8.60;99.90;;;;;;5069570;28;20246;-68
2023/12/16 05:07:46;;;;;;;11.57;2.30;;;8.60;99.90;;;;;;5074247;28;20310;-68
2023/12/16 05:10:13;;;;;;;7.47;1.87;;;8.60;99.90;;;;;;5073514;28;20190;-68
2023/12/16 05:12:41;;;;;;;5.40;1.80;;;8.60;99.90;;;;;;5055218;28;20206;-67
2023/12/16 05:15:12;;;;;;;6.10;1.73;;;8.60;99.90;;;;;;5073333;28;20197;-67
2023/12/16 05:17:39;;;;;;;5.90;1.60;;;8.60;99.90;;;;;;5055854;28;20221;-67
2023/12/16 05:20:07;;;;;;;5.87;2.00;;;8.60;99.90;;;;;;5073452;28;20292;-67
2023/12/16 05:22:34;;;;;;;9.33;1.90;;;8.60;99.90;;;;;;5064363;28;20267;-67
2023/12/16 05:25:02;;;;;;;4.83;1.57;;;8.60;99.90;;;;;;5073503;28;20249;-68
2023/12/16 05:27:29;;;;;;;6.90;1.87;;;8.60;99.90;;;;;;5044777;28;20202;-67
2023/12/16 05:29:57;;;;;;;6.97;1.87;;;8.70;99.90;;;;;;5072988;28;20193;-67
2023/12/16 05:32:26;;;;;;;9.33;2.10;;;8.70;99.90;;;;;;5055834;28;20193;-68
2023/12/16 05:34:54;;;;;;;10.20;2.40;;;8.60;99.90;;;;;;5072990;28;20652;-67
2023/12/16 05:37:21;;;;;;;9.10;2.40;;;8.70;99.90;;;;;;5073384;28;20220;-66
2023/12/16 05:39:49;;;;;;;5.63;1.73;;;8.70;99.90;;;;;;5072173;28;20326;-68
2023/12/16 05:42:16;;;;;;;4.50;1.97;;;8.60;99.90;;;;;;5072826;28;20236;-67
2023/12/16 05:44:43;;;;;;;8.80;1.87;;;8.70;99.90;;;;;;5054318;28;20211;-67
2023/12/16 05:47:10;;;;;;;7.73;1.90;;;8.70;99.90;;;;;;5073140;28;20206;-67
2023/12/16 05:49:37;;;;;;;3.67;1.70;;;8.70;99.90;;;;;;5073027;28;20293;-68
2023/12/16 05:52:06;;;;;;;9.03;1.93;;;8.70;99.90;;;;;;5072992;28;20279;-67
2023/12/16 05:54:36;;;;;;;6.83;2.00;;;8.70;99.90;;;;;;5054649;28;20560;-66
2023/12/16 05:57:03;;;;;;;5.23;2.07;;;8.70;99.90;;;;;;5072137;28;20263;-66
2023/12/16 05:59:30;;;;;;;7.00;2.10;;;8.70;99.90;;;;;;5071442;28;20266;-68
2023/12/16 06:01:57;;;;;;;7.77;2.03;;;8.70;99.90;;;;;;5055084;28;20332;-68
2023/12/16 06:04:24;;;;;;;5.77;2.00;;;8.70;99.90;;;;;;5072765;28;20314;-68
2023/12/16 06:06:51;;;;;;;8.60;2.63;;;8.70;99.90;;;;;;5072202;28;20593;-68
2023/12/16 06:09:19;;;;;;;6.90;1.60;;;8.70;99.90;;;;;;5071922;28;20241;-66
2023/12/16 06:11:46;;;;;;;10.70;2.00;;;8.70;99.90;;;;;;5072067;28;20286;-67
2023/12/16 06:14:13;;;;;;;11.80;2.53;;;8.70;99.90;;;;;;5072122;28;20250;-67
2023/12/16 06:16:41;;;;;;;5.53;1.93;;;8.70;99.90;;;;;;5054170;28;20268;-67
2023/12/16 06:19:08;;;;;;;6.77;1.80;;;8.60;99.90;;;;;;5054789;28;20611;-67
2023/12/16 06:21:35;;;;;;;8.10;2.10;;;8.60;99.90;;;;;;5065457;28;20306;-67
2023/12/16 06:24:06;;;;;;;6.90;1.93;;;8.60;99.90;;;;;;5072483;28;20204;-67
2023/12/16 06:26:34;;;;;;;7.87;1.97;;;8.70;99.90;;;;;;5071494;28;20197;-68
2023/12/16 06:29:01;;;;;;;6.53;2.30;;;8.70;99.90;;;;;;5071932;28;20195;-67
2023/12/16 06:31:28;;;;;;;4.53;1.80;;;8.70;99.90;;;;;;5072483;28;20197;-68
2023/12/16 06:33:55;;;;;;;6.27;1.80;;;8.70;99.90;;;;;;5072450;28;20217;-67
2023/12/16 06:36:22;;;;;;;4.73;1.97;;;8.70;99.90;;;;;;5071989;28;20235;-68
2023/12/16 06:38:49;;;;;;;4.10;1.60;;;8.70;99.90;;;;;;5071778;28;20202;-67
2023/12/16 06:41:16;;;;;;;9.73;2.37;;;8.60;99.90;;;;;;5071658;28;20371;-68
2023/12/16 06:43:45;;;;;;;6.07;1.70;;;8.60;99.90;;;;;;5053475;28;20276;-68
2023/12/16 06:46:19;;;;;;;8.40;2.03;;;8.60;99.90;;;;;;5071746;28;20707;-68
2023/12/16 06:48:46;;;;;;;9.07;1.83;;;8.60;99.90;;;;;;5072209;28;20245;-68
2023/12/16 06:51:13;;;;;;;5.57;1.60;;;8.60;99.90;;;;;;5071836;28;20208;-67
2023/12/16 06:53:40;;;;;;;8.77;1.60;;;8.60;99.90;;;;;;5072296;28;20614;-67
2023/12/16 06:56:09;;;;;;;7.60;2.00;;;8.60;99.90;;;;;;5070569;28;20319;-68
2023/12/16 06:58:36;;;;;;;7.00;1.50;;;8.60;99.90;;;;;;5071522;28;20224;-67
2023/12/16 07:01:07;;;;;;;6.00;1.60;;;8.60;99.90;;;;;;5072061;28;20269;-67
2023/12/16 07:03:34;;;;;;;5.77;1.50;;;8.60;99.90;;;;;;5065054;28;20225;-67
2023/12/16 07:06:02;;;;;;;4.43;2.00;;;8.60;99.90;;;;;;5064489;28;20277;-67
2023/12/16 07:08:29;;;;;;;3.70;1.83;;;8.60;99.90;;;;;;5070977;28;20191;-67
2023/12/16 07:10:57;;;;;;;5.43;1.57;;;8.60;99.90;;;;;;5053786;28;20207;-67
2023/12/16 07:13:24;;;;;;;7.10;1.60;;;8.50;99.90;;;;;;5070273;28;20230;-67
2023/12/16 07:15:51;;;;;;;7.43;2.10;;;8.50;99.90;;;;;;5071403;28;20826;-67
2023/12/16 07:18:20;;;;;;;4.30;1.40;;;8.60;99.90;;;;;;5071307;28;20228;-67
2023/12/16 07:20:47;;;;;;;3.67;1.77;;;8.60;99.90;;;;;;5052878;28;20220;-68
2023/12/16 07:23:14;;;;;;;5.13;2.00;;;8.60;99.90;;;;;;5070579;28;20636;-68
2023/12/16 07:25:41;;;;;;;5.23;1.80;;;8.60;99.90;;;;;;5071233;28;20202;-68
2023/12/16 07:28:08;;;;;;;6.40;2.80;;;8.60;99.90;;;;;;5068976;28;20625;-67
2023/12/16 07:30:35;;;;;;;7.37;1.80;;;8.60;99.90;;;;;;5071351;28;20209;-69
2023/12/16 07:33:04;;;;;;;3.97;1.50;;;8.60;99.90;;;;;;5070461;28;20285;-67
2023/12/16 07:35:34;;;;;;;5.77;2.13;;;8.70;99.90;;;;;;5071195;28;20227;-67
2023/12/16 07:38:01;;;;;;;10.80;2.00;;;8.70;99.90;;;;;;5070918;28;20196;-68
2023/12/16 07:40:29;;;;;;;4.70;1.50;;;8.70;99.90;;;;;;5070677;28;20265;-67
2023/12/16 07:42:56;;;;;;;4.43;1.73;;;8.70;99.90;;;;;;5048279;28;20201;-66
2023/12/16 07:45:25;;;;;;;7.47;2.00;;;8.70;99.90;;;;;;5071169;28;20205;-67
2023/12/16 07:47:57;;;;;;;3.23;1.57;;;8.70;99.90;;;;;;5070525;28;20529;-67
2023/12/16 07:50:27;;;;;;;5.67;1.90;;;8.70;99.90;;;;;;5071094;28;20200;-67
2023/12/16 07:52:55;;;;;;;3.07;1.53;;;8.70;99.90;;;;;;5052181;28;20266;-67
2023/12/16 07:55:23;;;;;;;6.40;2.17;;;8.80;99.90;;;;;;5070656;28;20222;-68
2023/12/16 07:57:51;;;;;;;6.00;2.20;;;8.80;99.90;;;;;;5051171;28;20591;-68
2023/12/16 08:00:19;;;;;;;6.63;1.80;;;8.80;99.90;;;;;;5071026;28;20215;-68
2023/12/16 08:02:46;;;;;;;4.57;1.73;;;8.80;99.90;;;;;;5052146;28;20648;-67
2023/12/16 08:05:14;;;;;;;3.27;1.50;;;8.80;99.90;;;;;;5068712;28;20220;-69
2023/12/16 08:07:41;;;;;;;3.53;1.47;;;8.90;99.90;;;;;;5070468;28;20247;-69
2023/12/16 08:10:10;;;;;;;5.10;1.70;;;8.90;99.90;;;;;;5051596;28;20211;-68
2023/12/16 08:12:37;;;;;;;2.57;1.47;;;9.00;99.90;;;;;;5069465;28;20238;-68
2023/12/16 08:15:04;;;;;;;3.23;1.60;;;9.00;99.90;;;;;;5069671;28;20598;-67
2023/12/16 08:17:32;;;;;;;3.77;1.73;;;9.00;99.90;;;;;;5051948;28;20211;-67
2023/12/16 08:19:59;;;;;;;6.47;2.20;;;9.10;99.90;;;;;;5070615;28;20540;-69
2023/12/16 08:22:26;;;;;;;5.73;2.27;;;9.10;99.90;;;;;;5052209;28;20250;-66
2023/12/16 08:24:54;;;;;;;4.43;2.00;;;9.10;99.90;;;;;;5070488;28;20215;-67
2023/12/16 08:27:22;;;;;;;5.43;1.77;;;9.10;99.90;;;;;;5050417;28;20202;-68
2023/12/16 08:29:49;;;;;;;4.53;2.10;;;9.10;99.90;;;;;;5069508;28;20222;-67
2023/12/16 08:32:17;;;;;;;1.73;1.30;;;9.20;99.90;;;;;;5069746;28;20239;-67
2023/12/16 08:34:44;;;;;;;4.57;1.80;;;9.20;99.90;;;;;;5049955;28;20277;-66
2023/12/16 08:37:13;;;;;;;1.90;1.50;;;9.20;99.90;;;;;;5070101;28;20189;-67
2023/12/16 08:39:40;;;;;;;4.23;1.73;;;9.30;99.90;;;;;;5069940;28;20223;-69
2023/12/16 08:42:07;;;;;;;4.10;2.20;;;9.30;99.90;;;;;;5069146;28;20274;-68
2023/12/16 08:44:36;;;;;;;4.37;1.73;;;9.30;99.90;;;;;;5069438;28;20238;-67
2023/12/16 08:47:03;;;;;;;3.10;1.70;;;9.30;99.90;;;;;;5051266;28;20230;-68
2023/12/16 08:49:32;;;;;;;1.87;1.50;;;9.30;99.90;;;;;;5070158;28;20205;-67
2023/12/16 08:51:59;;;;;;;4.10;1.57;;;9.40;99.90;;;;;;5049183;28;20209;-66
2023/12/16 08:54:27;;;;;;;1.57;1.20;;;9.40;99.90;;;;;;5039392;28;20273;-68
2023/12/16 08:56:54;;;;;;;3.27;1.63;;;9.40;99.90;;;;;;5051261;28;20293;-67
2023/12/16 08:59:21;;;;;;;2.77;1.63;;;9.40;99.90;;;;;;5068920;28;20666;-67
2023/12/16 09:01:49;;;;;;;3.70;1.87;;;9.50;99.90;;;;;;5069833;28;20220;-68
2023/12/16 09:04:16;;;;;;;1.90;1.57;;;9.50;99.90;;;;;;5068779;28;20290;-68
2023/12/16 09:06:43;;;;;;;2.80;1.67;;;9.50;99.90;;;;;;5063972;28;20200;-67
2023/12/16 09:09:13;;;;;;;2.10;1.40;;;9.50;99.90;;;;;;5069397;28;20691;-68
2023/12/16 09:11:45;;;;;;;2.13;1.60;;;9.50;99.90;;;;;;5069504;28;20235;-67
2023/12/16 09:14:12;;;;;;;3.00;1.70;;;9.50;99.90;;;;;;5068670;28;20199;-67
2023/12/16 09:16:39;;;;;;;1.83;1.70;;;9.50;99.90;;;;;;5050217;28;20235;-67
2023/12/16 09:19:08;;;;;;;2.67;1.63;;;9.50;99.90;;;;;;5051939;28;20259;-67
2023/12/16 09:21:35;;;;;;;3.03;1.60;;;9.50;99.90;;;;;;5061395;28;20714;-67
2023/12/16 09:24:03;;;;;;;3.13;2.00;;;9.50;99.90;;;;;;5051641;28;20205;-67
2023/12/16 09:26:30;;;;;;;2.93;1.60;;;9.60;99.90;;;;;;5068628;28;20238;-67
2023/12/16 09:28:57;;;;;;;2.70;1.80;;;9.60;99.90;;;;;;5068817;28;20680;-67
2023/12/16 09:31:24;;;;;;;4.37;1.90;;;9.60;99.90;;;;;;5048274;28;20219;-67
2023/12/16 09:33:51;;;;;;;5.30;2.33;;;9.60;99.90;;;;;;5069604;28;20660;-67
2023/12/16 09:36:26;;;;;;;3.57;1.90;;;9.60;99.90;;;;;;5070419;28;20197;-67
2023/12/16 09:38:57;;;;;;;3.57;2.00;;;9.50;99.90;;;;;;5069621;28;20617;-68
2023/12/16 09:41:26;;;;;;;2.10;1.90;;;9.50;99.90;;;;;;5069208;28;20212;-68
2023/12/16 09:43:54;;;;;;;4.23;2.13;;;9.50;99.90;;;;;;5060758;28;20261;-67
2023/12/16 09:46:23;;;;;;;3.37;2.00;;;9.50;99.90;;;;;;5072362;28;20259;-67
2023/12/16 09:48:51;;;;;;;3.63;2.37;;;9.50;99.90;;;;;;5072977;28;20698;-68
2023/12/16 09:51:21;;;;;;;3.93;1.93;;;9.60;99.90;;;;;;5073185;28;20711;-66
2023/12/16 09:53:49;;;;;;;3.23;2.03;;;9.60;99.90;;;;;;5072560;28;20192;-67
2023/12/16 09:56:17;;;;;;;5.13;1.87;;;9.60;99.90;;;;;;5054346;28;20204;-68
2023/12/16 09:58:46;;;;;;;2.80;1.77;;;9.60;99.90;;;;;;5072045;28;20232;-68
2023/12/16 10:01:16;;;;;;;3.30;1.73;;;9.60;99.90;;;;;;5073064;28;20235;-68
2023/12/16 10:03:47;;;;;;;5.43;2.27;;;9.60;99.90;;;;;;5072207;28;20261;-67
2023/12/16 10:06:15;;;;;;;4.77;2.17;;;9.60;99.90;;;;;;5070907;28;20228;-67
2023/12/16 10:08:44;;;;;;;2.97;1.80;;;9.60;99.90;;;;;;5071826;28;20204;-67
2023/12/16 10:11:11;;;;;;;2.73;1.70;;;9.50;99.90;;;;;;5054138;28;20208;-67
2023/12/16 10:13:57;;;;;;;6.43;2.40;;;9.60;99.90;;;;;;5053418;28;20209;-66
2023/12/16 10:16:24;;;;;;;5.93;2.20;;;9.60;99.90;;;;;;5054517;28;20617;-67
2023/12/16 10:18:53;;;;;;;6.37;1.80;;;9.60;99.90;;;;;;5072990;28;20704;-68
2023/12/16 10:21:24;;;;;;;4.27;2.00;;;9.50;99.90;;;;;;5053945;28;20223;-67
2023/12/16 10:23:53;;;;;;;5.53;2.13;;;9.50;99.90;;;;;;5072733;28;20281;-68
2023/12/16 10:26:26;;;;;;;5.30;2.03;;;9.50;99.90;;;;;;5071501;28;20208;-68
2023/12/16 10:28:54;;;;;;;3.10;1.87;;;9.50;99.90;;;;;;5053869;28;20322;-68
2023/12/16 10:31:25;;;;;;;3.80;1.80;;;9.50;99.90;;;;;;5072353;28;20199;-67
2023/12/16 10:33:52;;;;;;;2.30;1.60;;;9.50;99.90;;;;;;5072249;28;20214;-68
2023/12/16 10:36:20;;;;;;;5.53;2.13;;;9.50;99.90;;;;;;5072959;28;20253;-66
2023/12/16 10:38:48;;;;;;;3.90;1.60;;;9.50;99.90;;;;;;5053700;28;20208;-67
2023/12/16 10:41:16;;;;;;;3.80;1.60;;;9.50;99.90;;;;;;5046196;28;20204;-67
2023/12/16 10:43:43;;;;;;;3.57;1.87;;;9.60;99.90;;;;;;5069507;28;20197;-67
2023/12/16 10:46:14;;;;;;;4.13;1.70;;;9.60;99.90;;;;;;5054443;28;20360;-67
2023/12/16 10:48:43;;;;;;;2.30;1.67;;;9.60;99.90;;;;;;5071626;28;20219;-66
2023/12/16 10:51:11;;;;;;;3.43;1.80;;;9.70;99.90;;;;;;5072301;28;20204;-67
2023/12/16 10:53:40;;;;;;;2.73;2.00;;;9.70;99.90;;;;;;5053705;28;20211;-67
2023/12/16 10:56:16;;;;;;;4.80;2.40;;;9.70;99.90;;;;;;5065602;28;20197;-66
2023/12/16 10:58:56;;;;;;;5.37;1.97;;;9.60;99.90;;;;;;5071105;28;20503;-66
2023/12/16 11:01:29;;;;;;;6.17;1.90;;;9.60;99.90;;;;;;5071765;28;20289;-66
2023/12/16 11:04:04;;;;;;;1.90;1.47;;;9.60;99.90;;;;;;5062597;28;20253;-66
2023/12/16 11:06:40;;;;;;;2.77;1.83;;;9.60;99.90;;;;;;5053024;28;20247;-67
2023/12/16 11:09:07;;;;;;;3.80;1.97;;;10.30;99.90;;;;;;5070727;28;20620;-66
2023/12/16 11:11:38;;;;;;;4.87;2.17;;;9.60;99.90;;;;;;5071000;28;20273;-67
2023/12/16 11:14:06;;;;;;;7.77;2.70;;;9.60;99.90;;;;;;5052487;28;20220;-66
2023/12/16 11:16:42;;;;;;;3.77;2.20;;;9.70;99.90;;;;;;5071384;28;20610;-65
2023/12/16 11:19:11;;;;;;;5.33;2.13;;;9.70;99.90;;;;;;5071517;28;20189;-67
2023/12/16 11:21:41;;;;;;;5.70;2.20;;;9.70;99.90;;;;;;5071570;28;20307;-67
2023/12/16 11:24:10;;;;;;;6.97;2.40;;;9.70;99.90;;;;;;5071029;28;20196;-67
2023/12/16 11:26:39;;;;;;;7.17;2.70;;;9.70;99.90;;;;;;5053182;28;20246;-66
2023/12/16 11:29:06;;;;;;;4.07;2.30;;;9.70;99.90;;;;;;5071058;28;20189;-67
2023/12/16 11:31:33;;;;;;;4.13;2.20;;;9.70;99.90;;;;;;5071356;28;20208;-67
2023/12/16 11:34:02;;;;;;;7.20;2.40;;;9.70;99.90;;;;;;5070821;28;20221;-67
2023/12/16 11:36:55;;;;;;;5.47;1.90;;;9.70;99.90;;;;;;5071629;28;20208;-67
2023/12/16 11:39:44;;;;;;;9.07;1.93;;;9.60;99.90;;;;;;5067877;28;20230;-66
2023/12/16 11:42:14;;;;;;;5.63;1.77;;;9.60;99.90;;;;;;5045980;28;20221;-66
2023/12/16 11:44:52;;;;;;;5.30;2.10;;;9.70;99.90;;;;;;5070192;28;20252;-67
2023/12/16 11:47:22;;;;;;;7.33;2.20;;;9.70;99.90;;;;;;5071014;28;20582;-68
2023/12/16 11:49:50;;;;;;;3.83;1.90;;;9.70;99.90;;;;;;5070847;28;20202;-68
2023/12/16 11:52:22;;;;;;;5.87;1.87;;;9.70;99.90;;;;;;5059856;28;20670;-67
2023/12/16 11:54:53;;;;;;;9.33;2.63;;;9.70;99.90;;;;;;5067078;28;20349;-67
2023/12/16 11:57:24;;;;;;;6.67;2.17;;;9.70;99.90;;;;;;5069794;28;20266;-68
2023/12/16 11:59:51;;;;;;;6.10;1.90;;;9.70;99.90;;;;;;5051733;28;20209;-68
2023/12/16 12:02:19;;;;;;;4.90;2.00;;;9.70;99.90;;;;;;5061892;28;20266;-68
2023/12/16 12:04:46;;;;;;;6.00;1.90;;;9.70;99.90;;;;;;5051738;28;20233;-67
2023/12/16 12:07:15;;;;;;;2.87;1.70;;;9.80;99.90;;;;;;5070316;28;20204;-68
2023/12/16 12:09:42;;;;;;;6.43;2.63;;;9.80;99.90;;;;;;5068276;28;20203;-67
2023/12/16 12:12:10;;;;;;;4.20;2.10;;;9.80;99.90;;;;;;5070206;28;20276;-68
2023/12/16 12:14:42;;;;;;;4.47;2.33;;;9.80;99.90;;;;;;5069329;28;20739;-67
2023/12/16 12:17:10;;;;;;;4.30;1.87;;;9.80;99.90;;;;;;5070372;28;20204;-68
2023/12/16 12:19:38;;;;;;;5.97;1.90;;;9.80;99.90;;;;;;5052307;28;20675;-68
2023/12/16 12:22:08;;;;;;;6.83;2.57;;;9.90;99.90;;;;;;5064270;28;20216;-66
2023/12/16 12:24:35;;;;;;;6.33;2.37;;;9.90;99.90;;;;;;5070109;28;20192;-67
2023/12/16 12:27:02;;;;;;;11.77;3.37;;;9.90;99.90;;;;;;5069477;28;20572;-69
2023/12/16 12:29:53;;;;;;;5.87;2.40;;;9.80;99.90;;;;;;5051393;28;20201;-67
2023/12/16 12:32:20;;;;;;;3.63;2.13;;;9.80;99.90;;;;;;5069948;28;20184;-67
2023/12/16 12:34:58;;;;;;;3.90;2.27;;;9.80;99.90;;;;;;5065871;28;20207;-68
2023/12/16 12:37:25;;;;;;;7.90;2.70;;;9.80;99.90;;;;;;5052327;28;20559;-67
2023/12/16 12:39:53;;;;;;;7.87;2.90;;;9.80;99.90;;;;;;5069637;28;20204;-67
2023/12/16 12:42:20;;;;;;;5.83;2.93;;;9.80;99.90;;;;;;5051028;28;20220;-67
2023/12/16 12:44:53;;;;;;;5.20;2.43;;;9.80;99.90;;;;;;5051261;28;20208;-67
2023/12/16 12:47:30;;;;;;;6.83;2.57;;;9.80;99.90;;;;;;5070709;28;20196;-67
2023/12/16 12:49:57;;;;;;;4.93;2.63;;;9.80;99.90;;;;;;5070052;28;20211;-67
2023/12/16 12:52:37;;;;;;;4.07;2.10;;;9.80;99.90;;;;;;5059754;28;20545;-66
2023/12/16 12:55:05;;;;;;;9.73;3.37;;;9.80;99.90;;;;;;5070025;28;20204;-68
2023/12/16 12:57:33;;;;;;;5.27;2.37;;;9.80;99.90;;;;;;5051983;28;20216;-67
2023/12/16 13:00:03;;;;;;;6.27;2.77;;;9.90;99.90;;;;;;5068640;28;20208;-68
2023/12/16 13:02:31;;;;;;;6.47;2.77;;;9.90;99.90;;;;;;5070130;28;20257;-67
2023/12/16 13:04:58;;;;;;;11.20;2.57;;;9.90;99.90;;;;;;5069062;28;20575;-67